sensor_id;sensor_type;location;lat;lon;timestamp;pressure;altitude;pressure_sealevel;temperature;humidity
64862;BME280;62652;42.274;-71.436;2023-12-20T00:00:00;101300.0;;;3.2222222222222205;64.5
64862;BME280;62652;42.274;-71.436;2023-12-20T00:01:01;101310.0;;;3.111111111111112;65.9
64862;BME280;62652;42.274;-71.436;2023-12-20T00:02:00;101310.0;;;2.999999999999999;66.2
64862;BME280;62652;42.274;-71.436;2023-12-20T00:03:00;101320.0;;;3.2222222222222205;64.7
64862;BME280;62652;42.274;-71.436;2023-12-20T00:04:01;101310.0;;;2.999999999999999;64.8
64862;BME280;62652;42.274;-71.436;2023-12-20T00:05:00;101320.0;;;3.2222222222222205;64.1
64862;BME280;62652;42.274;-71.436;2023-12-20T00:06:00;101320.0;;;3.2222222222222205;64.3
64862;BME280;62652;42.274;-71.436;2023-12-20T00:07:00;101320.0;;;3.2222222222222205;64.3
64862;BME280;62652;42.274;-71.436;2023-12-20T00:08:00;101320.0;;;3.111111111111112;65.3
64862;BME280;62652;42.274;-71.436;2023-12-20T00:09:00;101320.0;;;3.111111111111112;64.1
64862;BME280;62652;42.274;-71.436;2023-12-20T00:10:00;101330.0;;;3.111111111111112;64.5
64862;BME280;62652;42.274;-71.436;2023-12-20T00:11:00;101330.0;;;3.111111111111112;64.9
64862;BME280;62652;42.274;-71.436;2023-12-20T00:12:00;101330.0;;;2.999999999999999;66.2
64862;BME280;62652;42.274;-71.436;2023-12-20T00:13:01;101320.0;;;2.8888888888888906;66.3
64862;BME280;62652;42.274;-71.436;2023-12-20T00:14:01;101330.0;;;2.999999999999999;64.9
64862;BME280;62652;42.274;-71.436;2023-12-20T00:15:01;101330.0;;;2.999999999999999;65.3
64862;BME280;62652;42.274;-71.436;2023-12-20T00:16:00;101330.0;;;2.8888888888888906;66.3
64862;BME280;62652;42.274;-71.436;2023-12-20T00:17:01;101340.0;;;2.7777777777777777;66.8
64862;BME280;62652;42.274;-71.436;2023-12-20T00:18:00;101340.0;;;2.8888888888888906;67.4
64862;BME280;62652;42.274;-71.436;2023-12-20T00:19:00;101340.0;;;2.999999999999999;66.7
64862;BME280;62652;42.274;-71.436;2023-12-20T00:20:00;101340.0;;;2.8888888888888906;66.8
64862;BME280;62652;42.274;-71.436;2023-12-20T00:21:00;101340.0;;;2.8888888888888906;67.3
64862;BME280;62652;42.274;-71.436;2023-12-20T00:22:00;101350.0;;;2.7777777777777777;67.6
64862;BME280;62652;42.274;-71.436;2023-12-20T00:23:00;101350.0;;;2.7777777777777777;67.1
64862;BME280;62652;42.274;-71.436;2023-12-20T00:24:00;101350.0;;;2.8888888888888906;66.6
64862;BME280;62652;42.274;-71.436;2023-12-20T00:25:01;101350.0;;;2.7777777777777777;66.7
64862;BME280;62652;42.274;-71.436;2023-12-20T00:26:00;101350.0;;;2.7777777777777777;67.3
64862;BME280;62652;42.274;-71.436;2023-12-20T00:27:00;101350.0;;;2.7777777777777777;67.8
64862;BME280;62652;42.274;-71.436;2023-12-20T00:28:01;101350.0;;;2.8888888888888906;67.6
64862;BME280;62652;42.274;-71.436;2023-12-20T00:29:00;101360.0;;;2.7777777777777777;66.9
64862;BME280;62652;42.274;-71.436;2023-12-20T00:30:00;101360.0;;;2.7222222222222214;68.2
64862;BME280;62652;42.274;-71.436;2023-12-20T00:31:00;101360.0;;;2.7222222222222214;66.9
64862;BME280;62652;42.274;-71.436;2023-12-20T00:32:00;101360.0;;;2.7222222222222214;66.8
64862;BME280;62652;42.274;-71.436;2023-12-20T00:33:00;101360.0;;;2.7777777777777777;66.3
64862;BME280;62652;42.274;-71.436;2023-12-20T00:34:01;101360.0;;;2.7222222222222214;66.5
64862;BME280;62652;42.274;-71.436;2023-12-20T00:35:00;101360.0;;;2.7222222222222214;66.9
64862;BME280;62652;42.274;-71.436;2023-12-20T00:36:01;101370.0;;;2.7222222222222214;67.1
64862;BME280;62652;42.274;-71.436;2023-12-20T00:37:00;101370.0;;;2.6111111111111125;67.6
64862;BME280;62652;42.274;-71.436;2023-12-20T00:38:00;101370.0;;;2.7222222222222214;67.4
64862;BME280;62652;42.274;-71.436;2023-12-20T00:39:00;101380.0;;;2.6111111111111125;68.9
64862;BME280;62652;42.274;-71.436;2023-12-20T00:40:00;101380.0;;;2.6111111111111125;68.4
64862;BME280;62652;42.274;-71.436;2023-12-20T00:41:00;101380.0;;;2.6111111111111125;68.2
64862;BME280;62652;42.274;-71.436;2023-12-20T00:42:00;101380.0;;;2.5;68.1
64862;BME280;62652;42.274;-71.436;2023-12-20T00:43:00;101380.0;;;2.5;68.4
64862;BME280;62652;42.274;-71.436;2023-12-20T00:44:00;101380.0;;;2.5;67.8
64862;BME280;62652;42.274;-71.436;2023-12-20T00:45:01;101380.0;;;2.7222222222222214;66.5
64862;BME280;62652;42.274;-71.436;2023-12-20T00:46:00;101380.0;;;2.6111111111111125;67.3
64862;BME280;62652;42.274;-71.436;2023-12-20T00:47:00;101380.0;;;2.6111111111111125;67.4
64862;BME280;62652;42.274;-71.436;2023-12-20T00:48:00;101390.0;;;2.5;67.9
64862;BME280;62652;42.274;-71.436;2023-12-20T00:49:00;101390.0;;;2.7222222222222214;66.5
64862;BME280;62652;42.274;-71.436;2023-12-20T00:50:01;101390.0;;;2.6111111111111125;66.9
64862;BME280;62652;42.274;-71.436;2023-12-20T00:51:00;101390.0;;;2.5;67.4
64862;BME280;62652;42.274;-71.436;2023-12-20T00:52:00;101390.0;;;2.5;67.5
64862;BME280;62652;42.274;-71.436;2023-12-20T00:53:00;101390.0;;;2.5;67.8
64862;BME280;62652;42.274;-71.436;2023-12-20T00:54:00;101390.0;;;2.3888888888888875;67.5
64862;BME280;62652;42.274;-71.436;2023-12-20T00:55:00;101390.0;;;2.5;66.7
64862;BME280;62652;42.274;-71.436;2023-12-20T00:56:00;101390.0;;;2.3888888888888875;68.1
64862;BME280;62652;42.274;-71.436;2023-12-20T00:57:01;101400.0;;;2.2777777777777786;68.1
64862;BME280;62652;42.274;-71.436;2023-12-20T00:58:01;101390.0;;;2.3888888888888875;67.8
64862;BME280;62652;42.274;-71.436;2023-12-20T00:59:01;101400.0;;;2.3888888888888875;67.9
64862;BME280;62652;42.274;-71.436;2023-12-20T01:00:01;101410.0;;;2.2777777777777786;69.1
64862;BME280;62652;42.274;-71.436;2023-12-20T01:01:00;101400.0;;;2.3888888888888875;67.5
64862;BME280;62652;42.274;-71.436;2023-12-20T01:02:01;101410.0;;;2.3888888888888875;67.2
64862;BME280;62652;42.274;-71.436;2023-12-20T01:03:01;101410.0;;;2.3888888888888875;67.4
64862;BME280;62652;42.274;-71.436;2023-12-20T01:04:01;101410.0;;;2.3888888888888875;67.6
64862;BME280;62652;42.274;-71.436;2023-12-20T01:05:00;101410.0;;;2.5;67.2
64862;BME280;62652;42.274;-71.436;2023-12-20T01:06:00;101400.0;;;2.3888888888888875;67.3
64862;BME280;62652;42.274;-71.436;2023-12-20T01:07:00;101410.0;;;2.3888888888888875;66.3
64862;BME280;62652;42.274;-71.436;2023-12-20T01:08:00;101410.0;;;2.3888888888888875;67.2
64862;BME280;62652;42.274;-71.436;2023-12-20T01:09:00;101410.0;;;2.2222222222222223;69.0
64862;BME280;62652;42.274;-71.436;2023-12-20T01:10:00;101420.0;;;2.3888888888888875;67.9
64862;BME280;62652;42.274;-71.436;2023-12-20T01:11:00;101410.0;;;2.2777777777777786;67.7
64862;BME280;62652;42.274;-71.436;2023-12-20T01:12:00;101420.0;;;2.2777777777777786;69.2
64862;BME280;62652;42.274;-71.436;2023-12-20T01:13:00;101420.0;;;2.2222222222222223;69.5
64862;BME280;62652;42.274;-71.436;2023-12-20T01:14:00;101430.0;;;2.1111111111111094;70.1
64862;BME280;62652;42.274;-71.436;2023-12-20T01:15:00;101430.0;;;2.1111111111111094;70.0
64862;BME280;62652;42.274;-71.436;2023-12-20T01:16:01;101430.0;;;2.2222222222222223;68.9
64862;BME280;62652;42.274;-71.436;2023-12-20T01:17:01;101440.0;;;2.3888888888888875;67.0
64862;BME280;62652;42.274;-71.436;2023-12-20T01:18:00;101430.0;;;2.2777777777777786;67.5
64862;BME280;62652;42.274;-71.436;2023-12-20T01:19:00;101440.0;;;2.2777777777777786;67.8
64862;BME280;62652;42.274;-71.436;2023-12-20T01:20:01;101440.0;;;2.1111111111111094;69.9
64862;BME280;62652;42.274;-71.436;2023-12-20T01:21:02;101450.0;;;2.2222222222222223;69.1
64862;BME280;62652;42.274;-71.436;2023-12-20T01:22:00;101450.0;;;2.1111111111111094;69.9
64862;BME280;62652;42.274;-71.436;2023-12-20T01:23:00;101460.0;;;2.1111111111111094;70.1
64862;BME280;62652;42.274;-71.436;2023-12-20T01:24:00;101460.0;;;2.2222222222222223;69.7
64862;BME280;62652;42.274;-71.436;2023-12-20T01:25:00;101460.0;;;2.2222222222222223;70.4
64862;BME280;62652;42.274;-71.436;2023-12-20T01:26:00;101460.0;;;2.1111111111111094;70.7
64862;BME280;62652;42.274;-71.436;2023-12-20T01:27:01;101460.0;;;2.1111111111111094;71.0
64862;BME280;62652;42.274;-71.436;2023-12-20T01:28:00;101460.0;;;2.000000000000001;71.1
64862;BME280;62652;42.274;-71.436;2023-12-20T01:29:00;101460.0;;;2.1111111111111094;70.6
64862;BME280;62652;42.274;-71.436;2023-12-20T01:30:00;101460.0;;;2.2222222222222223;70.0
64862;BME280;62652;42.274;-71.436;2023-12-20T01:31:02;101450.0;;;2.2222222222222223;69.5
64862;BME280;62652;42.274;-71.436;2023-12-20T01:32:00;101450.0;;;2.1111111111111094;71.5
64862;BME280;62652;42.274;-71.436;2023-12-20T01:33:01;101450.0;;;2.1111111111111094;72.6
64862;BME280;62652;42.274;-71.436;2023-12-20T01:34:00;101450.0;;;2.1111111111111094;71.9
64862;BME280;62652;42.274;-71.436;2023-12-20T01:35:00;101450.0;;;2.2222222222222223;70.3
64862;BME280;62652;42.274;-71.436;2023-12-20T01:36:01;101450.0;;;2.1111111111111094;71.0
64862;BME280;62652;42.274;-71.436;2023-12-20T01:37:00;101450.0;;;2.000000000000001;71.6
64862;BME280;62652;42.274;-71.436;2023-12-20T01:38:01;101450.0;;;2.000000000000001;70.9
64862;BME280;62652;42.274;-71.436;2023-12-20T01:39:01;101460.0;;;2.000000000000001;70.7
64862;BME280;62652;42.274;-71.436;2023-12-20T01:40:00;101460.0;;;2.000000000000001;71.5
64862;BME280;62652;42.274;-71.436;2023-12-20T01:41:00;101460.0;;;2.000000000000001;71.0
64862;BME280;62652;42.274;-71.436;2023-12-20T01:42:00;101460.0;;;2.1111111111111094;70.5
64862;BME280;62652;42.274;-71.436;2023-12-20T01:43:01;101460.0;;;2.1111111111111094;70.8
64862;BME280;62652;42.274;-71.436;2023-12-20T01:44:00;101460.0;;;2.1111111111111094;70.7
64862;BME280;62652;42.274;-71.436;2023-12-20T01:45:00;101460.0;;;2.1111111111111094;70.4
64862;BME280;62652;42.274;-71.436;2023-12-20T01:46:01;101460.0;;;2.000000000000001;70.9
64862;BME280;62652;42.274;-71.436;2023-12-20T01:47:01;101450.0;;;2.000000000000001;70.6
64862;BME280;62652;42.274;-71.436;2023-12-20T01:48:01;101460.0;;;2.000000000000001;70.8
64862;BME280;62652;42.274;-71.436;2023-12-20T01:49:00;101460.0;;;2.000000000000001;71.2
64862;BME280;62652;42.274;-71.436;2023-12-20T01:50:00;101460.0;;;1.8888888888888882;72.2
64862;BME280;62652;42.274;-71.436;2023-12-20T01:51:01;101470.0;;;1.7777777777777795;71.5
64862;BME280;62652;42.274;-71.436;2023-12-20T01:52:00;101470.0;;;1.722222222222223;72.8
64862;BME280;62652;42.274;-71.436;2023-12-20T01:53:01;101470.0;;;1.8888888888888882;72.6
64862;BME280;62652;42.274;-71.436;2023-12-20T01:54:01;101470.0;;;1.7777777777777795;72.4
64862;BME280;62652;42.274;-71.436;2023-12-20T01:55:01;101470.0;;;1.722222222222223;73.3
64862;BME280;62652;42.274;-71.436;2023-12-20T01:56:01;101470.0;;;1.7777777777777795;73.0
64862;BME280;62652;42.274;-71.436;2023-12-20T01:57:01;101470.0;;;1.722222222222223;73.5
64862;BME280;62652;42.274;-71.436;2023-12-20T01:58:01;101470.0;;;1.7777777777777795;73.1
64862;BME280;62652;42.274;-71.436;2023-12-20T01:59:01;101470.0;;;1.7777777777777795;73.2
64862;BME280;62652;42.274;-71.436;2023-12-20T02:00:00;101470.0;;;1.722222222222223;74.2
64862;BME280;62652;42.274;-71.436;2023-12-20T02:01:00;101460.0;;;1.6111111111111103;74.4
64862;BME280;62652;42.274;-71.436;2023-12-20T02:02:01;101470.0;;;1.7777777777777795;72.5
64862;BME280;62652;42.274;-71.436;2023-12-20T02:03:02;101470.0;;;1.7777777777777795;72.2
64862;BME280;62652;42.274;-71.436;2023-12-20T02:04:01;101470.0;;;1.7777777777777795;72.1
64862;BME280;62652;42.274;-71.436;2023-12-20T02:05:00;101470.0;;;1.8888888888888882;71.7
64862;BME280;62652;42.274;-71.436;2023-12-20T02:06:01;101470.0;;;1.722222222222223;72.6
64862;BME280;62652;42.274;-71.436;2023-12-20T02:07:02;101470.0;;;1.722222222222223;73.5
64862;BME280;62652;42.274;-71.436;2023-12-20T02:08:01;101470.0;;;1.722222222222223;72.9
64862;BME280;62652;42.274;-71.436;2023-12-20T02:09:01;101470.0;;;1.722222222222223;72.4
64862;BME280;62652;42.274;-71.436;2023-12-20T02:10:01;101470.0;;;1.722222222222223;72.1
64862;BME280;62652;42.274;-71.436;2023-12-20T02:11:01;101470.0;;;1.6111111111111103;73.1
64862;BME280;62652;42.274;-71.436;2023-12-20T02:12:00;101460.0;;;1.5000000000000016;74.3
64862;BME280;62652;42.274;-71.436;2023-12-20T02:13:01;101470.0;;;1.722222222222223;73.5
64862;BME280;62652;42.274;-71.436;2023-12-20T02:14:00;101460.0;;;1.6111111111111103;73.9
64862;BME280;62652;42.274;-71.436;2023-12-20T02:15:01;101460.0;;;1.6111111111111103;74.6
64862;BME280;62652;42.274;-71.436;2023-12-20T02:16:01;101460.0;;;1.5000000000000016;75.0
64862;BME280;62652;42.274;-71.436;2023-12-20T02:17:00;101460.0;;;1.3888888888888888;75.6
64862;BME280;62652;42.274;-71.436;2023-12-20T02:18:01;101470.0;;;1.5000000000000016;75.7
64862;BME280;62652;42.274;-71.436;2023-12-20T02:19:00;101470.0;;;1.5000000000000016;75.6
64862;BME280;62652;42.274;-71.436;2023-12-20T02:20:01;101470.0;;;1.5000000000000016;74.6
64862;BME280;62652;42.274;-71.436;2023-12-20T02:21:01;101470.0;;;1.5000000000000016;76.3
64862;BME280;62652;42.274;-71.436;2023-12-20T02:22:05;101470.0;;;1.5000000000000016;74.9
64862;BME280;62652;42.274;-71.436;2023-12-20T02:23:00;101470.0;;;1.3888888888888888;74.8
64862;BME280;62652;42.274;-71.436;2023-12-20T02:24:00;101470.0;;;1.3888888888888888;75.1
64862;BME280;62652;42.274;-71.436;2023-12-20T02:25:01;101480.0;;;1.3888888888888888;74.9
64862;BME280;62652;42.274;-71.436;2023-12-20T02:26:01;101480.0;;;1.3888888888888888;75.2
64862;BME280;62652;42.274;-71.436;2023-12-20T02:27:01;101480.0;;;1.5000000000000016;75.7
64862;BME280;62652;42.274;-71.436;2023-12-20T02:28:01;101480.0;;;1.5000000000000016;74.9
64862;BME280;62652;42.274;-71.436;2023-12-20T02:29:01;101480.0;;;1.2777777777777761;75.9
64862;BME280;62652;42.274;-71.436;2023-12-20T02:30:01;101480.0;;;1.5000000000000016;75.4
64862;BME280;62652;42.274;-71.436;2023-12-20T02:31:00;101480.0;;;1.3888888888888888;75.3
64862;BME280;62652;42.274;-71.436;2023-12-20T02:32:01;101470.0;;;1.2777777777777761;76.1
64862;BME280;62652;42.274;-71.436;2023-12-20T02:33:01;101470.0;;;1.2777777777777761;76.4
64862;BME280;62652;42.274;-71.436;2023-12-20T02:34:00;101470.0;;;1.2777777777777761;76.8
64862;BME280;62652;42.274;-71.436;2023-12-20T02:35:00;101470.0;;;1.2222222222222239;76.3
64862;BME280;62652;42.274;-71.436;2023-12-20T02:36:00;101460.0;;;1.2777777777777761;76.7
64862;BME280;62652;42.274;-71.436;2023-12-20T02:37:03;101470.0;;;1.3888888888888888;76.2
64862;BME280;62652;42.274;-71.436;2023-12-20T02:38:00;101470.0;;;1.2777777777777761;76.2
64862;BME280;62652;42.274;-71.436;2023-12-20T02:39:00;101470.0;;;1.3888888888888888;76.2
64862;BME280;62652;42.274;-71.436;2023-12-20T02:40:01;101470.0;;;1.2777777777777761;76.7
64862;BME280;62652;42.274;-71.436;2023-12-20T02:41:00;101470.0;;;1.2777777777777761;77.8
64862;BME280;62652;42.274;-71.436;2023-12-20T02:42:01;101470.0;;;1.3888888888888888;76.4
64862;BME280;62652;42.274;-71.436;2023-12-20T02:43:01;101470.0;;;1.1111111111111112;78.3
64862;BME280;62652;42.274;-71.436;2023-12-20T02:44:01;101470.0;;;1.2222222222222239;78.4
64862;BME280;62652;42.274;-71.436;2023-12-20T02:45:01;101470.0;;;1.2777777777777761;78.5
64862;BME280;62652;42.274;-71.436;2023-12-20T02:46:00;101470.0;;;1.2777777777777761;77.5
64862;BME280;62652;42.274;-71.436;2023-12-20T02:47:00;101470.0;;;1.2222222222222239;77.1
64862;BME280;62652;42.274;-71.436;2023-12-20T02:48:01;101470.0;;;1.1111111111111112;77.8
64862;BME280;62652;42.274;-71.436;2023-12-20T02:49:00;101470.0;;;1.2222222222222239;78.2
64862;BME280;62652;42.274;-71.436;2023-12-20T02:50:01;101470.0;;;1.2222222222222239;78.0
64862;BME280;62652;42.274;-71.436;2023-12-20T02:51:00;101480.0;;;1.2777777777777761;77.6
64862;BME280;62652;42.274;-71.436;2023-12-20T02:52:00;101480.0;;;1.2777777777777761;77.1
64862;BME280;62652;42.274;-71.436;2023-12-20T02:53:00;101480.0;;;1.2222222222222239;77.7
64862;BME280;62652;42.274;-71.436;2023-12-20T02:54:00;101480.0;;;1.2777777777777761;77.1
64862;BME280;62652;42.274;-71.436;2023-12-20T02:55:00;101480.0;;;1.2222222222222239;77.9
64862;BME280;62652;42.274;-71.436;2023-12-20T02:56:00;101490.0;;;1.2222222222222239;78.4
64862;BME280;62652;42.274;-71.436;2023-12-20T02:57:00;101490.0;;;1.2222222222222239;78.1
64862;BME280;62652;42.274;-71.436;2023-12-20T02:58:00;101490.0;;;1.2222222222222239;78.2
64862;BME280;62652;42.274;-71.436;2023-12-20T02:59:01;101500.0;;;1.1111111111111112;79.1
64862;BME280;62652;42.274;-71.436;2023-12-20T03:00:00;101500.0;;;1.2222222222222239;78.8
64862;BME280;62652;42.274;-71.436;2023-12-20T03:01:00;101500.0;;;1.1111111111111112;80.6
64862;BME280;62652;42.274;-71.436;2023-12-20T03:02:01;101500.0;;;1.1111111111111112;79.3
64862;BME280;62652;42.274;-71.436;2023-12-20T03:03:01;101500.0;;;1.2222222222222239;78.7
64862;BME280;62652;42.274;-71.436;2023-12-20T03:04:01;101500.0;;;1.1111111111111112;79.2
64862;BME280;62652;42.274;-71.436;2023-12-20T03:05:01;101500.0;;;0.9999999999999984;79.7
64862;BME280;62652;42.274;-71.436;2023-12-20T03:06:01;101490.0;;;0.9999999999999984;79.6
64862;BME280;62652;42.274;-71.436;2023-12-20T03:07:00;101500.0;;;0.9999999999999984;79.8
64862;BME280;62652;42.274;-71.436;2023-12-20T03:08:00;101490.0;;;1.1111111111111112;78.7
64862;BME280;62652;42.274;-71.436;2023-12-20T03:09:01;101500.0;;;1.1111111111111112;78.3
64862;BME280;62652;42.274;-71.436;2023-12-20T03:10:00;101500.0;;;1.1111111111111112;78.3
64862;BME280;62652;42.274;-71.436;2023-12-20T03:11:00;101500.0;;;1.2222222222222239;78.2
64862;BME280;62652;42.274;-71.436;2023-12-20T03:12:01;101500.0;;;1.1111111111111112;78.4
64862;BME280;62652;42.274;-71.436;2023-12-20T03:13:00;101500.0;;;0.9999999999999984;78.8
64862;BME280;62652;42.274;-71.436;2023-12-20T03:14:00;101500.0;;;1.1111111111111112;78.9
64862;BME280;62652;42.274;-71.436;2023-12-20T03:15:00;101500.0;;;0.9999999999999984;79.7
64862;BME280;62652;42.274;-71.436;2023-12-20T03:16:00;101510.0;;;0.9999999999999984;80.8
64862;BME280;62652;42.274;-71.436;2023-12-20T03:17:01;101510.0;;;0.9999999999999984;80.3
64862;BME280;62652;42.274;-71.436;2023-12-20T03:18:00;101510.0;;;0.9999999999999984;79.9
64862;BME280;62652;42.274;-71.436;2023-12-20T03:19:01;101510.0;;;0.9999999999999984;79.7
64862;BME280;62652;42.274;-71.436;2023-12-20T03:20:00;101500.0;;;0.9999999999999984;80.3
64862;BME280;62652;42.274;-71.436;2023-12-20T03:21:01;101500.0;;;0.8888888888888897;80.6
64862;BME280;62652;42.274;-71.436;2023-12-20T03:22:01;101500.0;;;0.777777777777777;80.9
64862;BME280;62652;42.274;-71.436;2023-12-20T03:23:01;101500.0;;;0.777777777777777;81.7
64862;BME280;62652;42.274;-71.436;2023-12-20T03:24:01;101500.0;;;0.777777777777777;82.1
64862;BME280;62652;42.274;-71.436;2023-12-20T03:25:00;101500.0;;;0.777777777777777;82.1
64862;BME280;62652;42.274;-71.436;2023-12-20T03:26:01;101500.0;;;0.9999999999999984;80.8
64862;BME280;62652;42.274;-71.436;2023-12-20T03:27:00;101500.0;;;0.8888888888888897;82.0
64862;BME280;62652;42.274;-71.436;2023-12-20T03:28:00;101500.0;;;0.777777777777777;81.6
64862;BME280;62652;42.274;-71.436;2023-12-20T03:29:01;101500.0;;;0.777777777777777;82.0
64862;BME280;62652;42.274;-71.436;2023-12-20T03:30:00;101510.0;;;0.8888888888888897;81.1
64862;BME280;62652;42.274;-71.436;2023-12-20T03:31:00;101510.0;;;0.8888888888888897;81.2
64862;BME280;62652;42.274;-71.436;2023-12-20T03:32:01;101510.0;;;0.777777777777777;82.0
64862;BME280;62652;42.274;-71.436;2023-12-20T03:33:00;101510.0;;;0.777777777777777;82.1
64862;BME280;62652;42.274;-71.436;2023-12-20T03:34:00;101520.0;;;0.8888888888888897;82.0
64862;BME280;62652;42.274;-71.436;2023-12-20T03:35:00;101520.0;;;0.7222222222222207;82.2
64862;BME280;62652;42.274;-71.436;2023-12-20T03:36:01;101520.0;;;0.9999999999999984;81.5
64862;BME280;62652;42.274;-71.436;2023-12-20T03:37:00;101520.0;;;0.9999999999999984;80.9
64862;BME280;62652;42.274;-71.436;2023-12-20T03:38:00;101530.0;;;0.9999999999999984;79.9
64862;BME280;62652;42.274;-71.436;2023-12-20T03:39:00;101530.0;;;0.8888888888888897;81.1
64862;BME280;62652;42.274;-71.436;2023-12-20T03:40:01;101530.0;;;0.777777777777777;81.5
64862;BME280;62652;42.274;-71.436;2023-12-20T03:41:01;101530.0;;;0.9999999999999984;81.1
64862;BME280;62652;42.274;-71.436;2023-12-20T03:42:00;101530.0;;;0.9999999999999984;81.0
64862;BME280;62652;42.274;-71.436;2023-12-20T03:43:01;101530.0;;;0.9999999999999984;80.7
64862;BME280;62652;42.274;-71.436;2023-12-20T03:44:00;101530.0;;;0.8888888888888897;81.6
64862;BME280;62652;42.274;-71.436;2023-12-20T03:45:00;101520.0;;;0.8888888888888897;82.0
64862;BME280;62652;42.274;-71.436;2023-12-20T03:46:00;101520.0;;;0.9999999999999984;80.6
64862;BME280;62652;42.274;-71.436;2023-12-20T03:47:00;101520.0;;;0.8888888888888897;81.2
64862;BME280;62652;42.274;-71.436;2023-12-20T03:48:00;101520.0;;;0.9999999999999984;81.0
64862;BME280;62652;42.274;-71.436;2023-12-20T03:49:00;101520.0;;;0.8888888888888897;81.3
64862;BME280;62652;42.274;-71.436;2023-12-20T03:50:00;101520.0;;;0.9999999999999984;81.3
64862;BME280;62652;42.274;-71.436;2023-12-20T03:51:01;101520.0;;;0.8888888888888897;80.6
64862;BME280;62652;42.274;-71.436;2023-12-20T03:52:00;101520.0;;;0.8888888888888897;80.6
64862;BME280;62652;42.274;-71.436;2023-12-20T03:53:01;101510.0;;;0.8888888888888897;80.4
64862;BME280;62652;42.274;-71.436;2023-12-20T03:54:02;101520.0;;;0.7222222222222207;81.1
64862;BME280;62652;42.274;-71.436;2023-12-20T03:55:00;101520.0;;;0.6111111111111119;82.1
64862;BME280;62652;42.274;-71.436;2023-12-20T03:56:00;101520.0;;;0.7222222222222207;82.1
64862;BME280;62652;42.274;-71.436;2023-12-20T03:57:00;101520.0;;;0.7222222222222207;81.6
64862;BME280;62652;42.274;-71.436;2023-12-20T03:58:00;101520.0;;;0.777777777777777;80.8
64862;BME280;62652;42.274;-71.436;2023-12-20T03:59:00;101520.0;;;0.8888888888888897;79.8
64862;BME280;62652;42.274;-71.436;2023-12-20T04:00:00;101520.0;;;0.8888888888888897;79.6
64862;BME280;62652;42.274;-71.436;2023-12-20T04:01:01;101520.0;;;0.8888888888888897;80.0
64862;BME280;62652;42.274;-71.436;2023-12-20T04:02:00;101520.0;;;0.9999999999999984;80.7
64862;BME280;62652;42.274;-71.436;2023-12-20T04:03:00;101530.0;;;0.8888888888888897;80.5
64862;BME280;62652;42.274;-71.436;2023-12-20T04:04:00;101530.0;;;0.777777777777777;80.4
64862;BME280;62652;42.274;-71.436;2023-12-20T04:05:01;101530.0;;;0.777777777777777;80.0
64862;BME280;62652;42.274;-71.436;2023-12-20T04:06:01;101530.0;;;0.7222222222222207;80.4
64862;BME280;62652;42.274;-71.436;2023-12-20T04:07:00;101530.0;;;0.7222222222222207;80.7
64862;BME280;62652;42.274;-71.436;2023-12-20T04:08:01;101530.0;;;0.777777777777777;80.3
64862;BME280;62652;42.274;-71.436;2023-12-20T04:09:01;101540.0;;;0.777777777777777;81.0
64862;BME280;62652;42.274;-71.436;2023-12-20T04:10:01;101540.0;;;0.7222222222222207;81.1
64862;BME280;62652;42.274;-71.436;2023-12-20T04:11:00;101540.0;;;0.6111111111111119;81.4
64862;BME280;62652;42.274;-71.436;2023-12-20T04:12:00;101540.0;;;0.7222222222222207;83.1
64862;BME280;62652;42.274;-71.436;2023-12-20T04:13:00;101540.0;;;0.6111111111111119;83.1
64862;BME280;62652;42.274;-71.436;2023-12-20T04:14:00;101540.0;;;0.7222222222222207;83.1
64862;BME280;62652;42.274;-71.436;2023-12-20T04:15:01;101540.0;;;0.7222222222222207;82.3
64862;BME280;62652;42.274;-71.436;2023-12-20T04:16:00;101530.0;;;0.7222222222222207;82.6
64862;BME280;62652;42.274;-71.436;2023-12-20T04:17:00;101540.0;;;0.7222222222222207;82.1
64862;BME280;62652;42.274;-71.436;2023-12-20T04:18:00;101530.0;;;0.7222222222222207;82.0
64862;BME280;62652;42.274;-71.436;2023-12-20T04:19:01;101540.0;;;0.7222222222222207;83.4
64862;BME280;62652;42.274;-71.436;2023-12-20T04:20:00;101540.0;;;0.7222222222222207;83.6
64862;BME280;62652;42.274;-71.436;2023-12-20T04:21:00;101530.0;;;0.6111111111111119;83.2
64862;BME280;62652;42.274;-71.436;2023-12-20T04:22:00;101540.0;;;0.6111111111111119;83.4
64862;BME280;62652;42.274;-71.436;2023-12-20T04:23:00;101540.0;;;0.6111111111111119;82.7
64862;BME280;62652;42.274;-71.436;2023-12-20T04:24:00;101540.0;;;0.7222222222222207;82.6
64862;BME280;62652;42.274;-71.436;2023-12-20T04:25:00;101540.0;;;0.6111111111111119;82.9
64862;BME280;62652;42.274;-71.436;2023-12-20T04:26:00;101540.0;;;0.7222222222222207;82.1
64862;BME280;62652;42.274;-71.436;2023-12-20T04:27:01;101540.0;;;0.7222222222222207;80.6
64862;BME280;62652;42.274;-71.436;2023-12-20T04:28:00;101540.0;;;0.6111111111111119;81.2
64862;BME280;62652;42.274;-71.436;2023-12-20T04:29:01;101540.0;;;0.6111111111111119;81.7